首页
METAR-TAF:

METAR-TAF

机场 :

汶萊國際機場

文莱, 文莱

纬度: 04-56N, 经度: 114-56E, 海拔: 22米

当前天气观测

该预报发布于23分钟前的05:00 UTC
风速7节,风向西
温度 31°C
湿度 66%
气压 1010 hPa
能见度10公里或以上
散云层高于1600英尺
少量云层高于1700英尺, 积雨云.
多云层高于30000英尺

METAR: WBSB 190500Z 26007KT 9999 SCT016 FEW017CB BKN300 31/24 Q1010 NOSIG

时间: 13:23 (05:23 UTC)

预报

该预报发布于6小时和33分钟前的22:50 UTC
预报有效从19日的 00点(UTC)到 20日的 06点(UTC)
风速4节,风向南转西南
能见度10公里或以上
少量云层高于1500英尺
少量云层高于1600英尺, 积雨云.
成为
从 19日的 02点(UTC)到 19日的 04点(UTC)
风速10节,风向西
散云层高于1600英尺
少量云层高于1700英尺, 积雨云.
短暂存在
从 19日的 04点(UTC)到 19日的 06点(UTC)
能見度: 7000
阵雨, 雷暴, 雨

TAF: WBSB 182250Z 1900/2006 20004KT 9999 FEW015 FEW016CB BECMG 1902/1904 26010KT SCT016 FEW017CB TEMPO 1904/1906 7000 SHRA TSRA

超过4000个机场的气象观测和天气预报(METAR&TAF报告)。

可查询的气象台以黄色和红色小点在地图上表示。

将鼠标移到小点上方,可查看气象台名称。

然后点击查看天气观测和预报。

如需切换地图:点击带黑十字的绿色按钮放大地图;点击带横线的绿色按钮缩小地图;或者点击绿色箭头查看邻近地区的地图。


METAR-TAF: